x

Sarnia Airport (71634) Weather Station

3:00pm - Sat 13th Feb 2016 All times are CST. -6 hours from GMT.

  • Wind
    17mph, 25mph gusts
  • Air Temp 9°f
  • Sea Pressure 1030.5mb
  • Sarnia Airport
  • Sarnia Airport

More Historic Weather Station data

Upgrade to MSW Pro to gain access to the past 30 days of data for over 8000 Wavebouys and Weather Stations around the globe.

Join Pro

Comparision Forecast

View Surf forecast
   
Sat 02/13 3:00pm 17 25 mph 1030.5mb 9f
2:00pm 15 22 mph 1030.1mb 9f
1:00pm 16 25 mph 1030.5mb 7f
12:00pm 18
mph
1030.5mb 7f
11:00am 14 20 mph 1030.5mb 7f
10:00am 15 23 mph 1030.1mb 5f
9:00am 16
mph
1029.5mb 5f
8:00am 18 24 mph 1028.8mb 5f
7:00am 17 24 mph 1028.1mb 1f
6:00am 18 29 mph 1027.1mb 1f
5:00am 18 31 mph 1026.8mb 3f
4:00am 17 27 mph 1026.1mb 3f
3:00am 23 29 mph 1025.1mb 5f
2:00am 24 35 mph 1024mb 5f
1:00am 25 35 mph 1023mb 5f
12:00am 20 33 mph 1022.4mb 5f
Fri 02/12 11:00pm 30 38 mph 1022mb 7f
10:00pm 28 36 mph 1021mb 9f
9:00pm 28 37 mph 1020mb 10f
8:01pm 30 43 mph 1018mb 12f
8:00pm 32 43 mph 1018mb 14f
7:31pm 33 43 mph 1017.3mb 14f
7:23pm 31 41 mph 1017.3mb 14f
7:20pm 32 41 mph 1016.9mb 14f
7:15pm 35 41 mph 1016.9mb 14f
7:10pm 29 38 mph 1016.6mb 14f
7:02pm 30 44 mph 1016.6mb 16f
7:00pm 33 44 mph 1016.3mb 16f
6:59pm 35 44 mph 1016.6mb 16f
6:58pm 36 44 mph 1016.3mb 16f
6:55pm 29 36 mph 1016.3mb 16f
6:53pm 28 35 mph 1016.3mb 16f
6:50pm 27
mph
1016.3mb 16f
6:49pm 27
mph
1015.9mb 16f
6:48pm 25 31 mph 1016.3mb 16f
6:45pm 23 31 mph 1016.3mb 16f
6:36pm 20 30 mph 1015.9mb 16f
6:00pm 24 32 mph 1015.2mb 18f
5:35pm 17 29 mph 1014.9mb 18f
5:30pm 20 28 mph 1014.9mb 18f
5:22pm 23 35 mph 1014.6mb 18f
5:20pm 27 35 mph 1014.6mb 18f
5:17pm 28 35 mph 1014.6mb 18f
5:00pm 13 21 mph 1014.2mb 18f
4:00pm 18 25 mph 1013.5mb 19f
3:00pm 15 21 mph 1012.9mb 21f
2:34pm 16
mph
1012.9mb 19f
2:33pm 14 22 mph 1012.9mb 19f
2:32pm 13 23 mph 1012.9mb 19f
2:29pm 13 24 mph 1012.9mb 19f
2:23pm 21
mph
1012.9mb 19f
2:22pm 20 25 mph 1012.9mb 19f
2:18pm 22
mph
1012.5mb 19f
2:04pm 14 21 mph 1012.5mb 21f
2:02pm 17
mph
1012.5mb 21f
2:00pm 13
mph
1012.5mb 21f
1:54pm 8
mph
1012.5mb 23f
1:47pm 10
mph
1012.5mb 21f
1:32pm 9 17 mph 1012.5mb 21f
1:31pm 10 17 mph 1012.5mb 21f
1:26pm 12 22 mph 1012.5mb 19f
1:20pm 14 22 mph 1012.9mb 19f
1:01pm 10 18 mph 1012.9mb 19f
1:00pm 13 18 mph 1012.9mb 19f
12:59pm 14
mph
1012.9mb 19f
12:57pm 14
mph
1012.9mb 21f
12:54pm 12 18 mph 1012.9mb 21f
12:00pm 13 18 mph 1013.5mb 21f
11:52am 12 18 mph 1013.5mb 21f
11:49am 15
mph
1013.9mb 21f
11:38am 12 20 mph 1013.9mb 21f
11:37am 10 20 mph 1013.9mb 21f
11:36am 12 20 mph 1013.9mb 21f
11:28am 14 20 mph 1013.9mb 21f
11:12am 15 21 mph 1014.2mb 21f
11:07am 14 20 mph 1014.2mb 21f
11:06am 15
mph
1014.2mb 21f
11:04am 13 20 mph 1014.2mb 21f
11:03am 13 20 mph 1014.2mb 21f
11:02am 14 20 mph 1014.2mb 21f
11:01am 15
mph
1014.2mb 21f
11:00am 13 20 mph 1014.2mb 21f
10:56am 9 20 mph 1014.6mb 21f
10:00am 13 18 mph 1014.9mb 19f
9:32am 13 21 mph 1015.2mb 19f
9:06am 10 17 mph 1015.6mb 19f
9:00am 10 17 mph 1015.9mb 18f
8:00am 13 18 mph 1016.3mb 16f
7:00am 10 18 mph 1016.9mb 16f
6:00am 9 20 mph 1018mb 14f
5:00am 10
mph
1018.3mb 12f
4:00am 8
mph
1019mb 7f
3:00am 8
mph
1019.6mb 9f
2:00am 7
mph
1020.7mb 12f
1:00am 3
mph
1021.7mb 9f
12:00am 5
mph
1022mb 5f
Thu 02/11 11:00pm 8
mph
1022.4mb 7f
10:00pm 7
mph
1023mb 5f
9:00pm 7
mph
1023mb 5f
8:00pm 7
mph
1023.7mb 7f
7:00pm 5
mph
1023.7mb 7f
6:00pm 6
mph
1023.7mb 9f
5:00pm 3
mph
1023.7mb 12f
4:00pm 7
mph
1023.7mb 14f
3:00pm 12
mph
1023.4mb 14f
2:00pm 17 24 mph 1022.7mb 12f
1:00pm 14 23 mph 1022.7mb 12f
12:00pm 17 23 mph 1022.4mb 12f
11:00am 20 31 mph 1022mb 10f
10:00am 24 33 mph 1021.3mb 12f
9:00am 21 29 mph 1020.7mb 12f
8:00am 16 24 mph 1020mb 10f
7:00am 17 30 mph 1019.3mb 10f
6:00am 13 21 mph 1018.6mb 9f
5:00am 17 23 mph 1017.6mb 9f
4:00am 17 25 mph 1016.9mb 9f
3:00am 16
mph
1016.3mb 9f
2:00am 15 24 mph 1015.6mb 9f
1:00am 15 25 mph 1014.9mb 9f
12:00am 17 23 mph 1014.9mb 9f
Wed 02/10 11:00pm 18 28 mph 1014.6mb 10f
10:00pm 22 28 mph 1014.2mb 12f
9:00pm 14 22 mph 1013.9mb 12f
8:00pm 14 28 mph 1013.2mb 14f
7:00pm 18 28 mph 1012.9mb 16f
6:15pm 9
mph
1012.5mb 16f
6:00pm 14 20 mph 1012.2mb 16f
5:35pm 13 18 mph 1012.2mb 16f
5:00pm 10 17 mph 1011.5mb 16f
4:00pm 10
mph
1011.2mb 16f
3:00pm 12 20 mph 1010.2mb 16f
2:00pm 20 25 mph 1009.8mb 16f
1:12pm 17 27 mph 1009.1mb 16f
1:08pm 18 27 mph 1009.1mb 16f
1:04pm 16 28 mph 1009.5mb 16f
1:01pm 21 28 mph 1009.5mb 16f
1:00pm 21 28 mph 1009.1mb 16f
12:58pm 21 28 mph 1009.5mb 16f
12:55pm 21 28 mph 1009.1mb 16f
12:51pm 17
mph
1009.1mb 16f
12:46pm 16 22 mph 1009.5mb 16f
12:00pm 16 31 mph 1009.1mb 16f
11:21am 15 29 mph 1009.1mb 16f
11:16am 21 29 mph 1009.1mb 14f
11:08am 16 28 mph 1009.1mb 16f
11:05am 20 28 mph 1009.1mb 16f
11:01am 16 28 mph 1009.1mb 16f
11:00am 13 23 mph 1009.1mb 16f
10:59am 13 23 mph 1009.1mb 16f
10:36am 21 28 mph 1008.8mb 16f
10:26am 17 28 mph 1008.8mb 16f
10:11am 17
mph
1008.8mb 16f
10:08am 17
mph
1008.8mb 16f
10:03am 13 20 mph 1008.8mb 16f
10:02am 12 20 mph 1008.5mb 16f
10:00am 13 21 mph 1008.5mb 16f
9:02am 16 23 mph 1007.8mb 16f
9:00am 15 23 mph 1007.8mb 16f
8:53am 15 21 mph 1007.8mb 18f
8:46am 15 23 mph 1007.8mb 18f
8:00am 18 25 mph 1007.5mb 18f
7:53am 12 18 mph 1007.1mb 18f
7:34am 14 20 mph 1007.1mb 19f
7:27am 12 17 mph 1007.1mb 19f
7:24am 13
mph
1007.1mb 19f
7:10am 12 18 mph 1006.8mb 19f
7:08am 12 18 mph 1006.8mb 19f
7:00am 14
mph
1006.8mb 19f
6:48am 13
mph
1006.8mb 19f
6:20am 13 18 mph 1006.4mb 19f
6:13am 13 21 mph 1006.4mb 19f
6:00am 13 20 mph 1006.1mb 19f
5:50am 13 20 mph 1006.1mb 19f
5:31am 10 22 mph 1005.8mb 19f
5:00am 10 17 mph 1005.4mb 21f
4:32am 10 17 mph 1005.4mb 21f
4:11am 10 18 mph 1005.1mb 21f
4:00am 13 20 mph 1005.1mb 21f
3:55am 10 21 mph 1004.7mb 21f
3:31am 15
mph
1004.7mb 21f
3:00am 13
mph
1004.4mb 21f
2:51am 13 23 mph 1004.4mb 21f
2:37am 15 21 mph 1004.4mb 21f
2:00am 12 20 mph 1004.4mb 21f
1:35am 13 21 mph 1004.4mb 23f
1:20am 10 17 mph 1004.1mb 23f
1:00am 16 23 mph 1004.1mb 23f
12:30am 16 22 mph 1004.1mb 23f
12:27am 15 22 mph 1004.1mb 23f
12:00am 20 27 mph 1004.1mb 23f
Tue 02/09 11:59pm 16 23 mph 1004.1mb 23f
11:33pm 16 23 mph 1004.1mb 23f
11:26pm 14 22 mph 1004.1mb 23f
11:22pm 16 24 mph 1004.1mb 23f
11:19pm 13 24 mph 1004.1mb 23f
11:18pm 15 24 mph 1004.1mb 23f
11:14pm 16 24 mph 1003.7mb 23f
11:05pm 14 22 mph 1003.7mb 25f
11:00pm 12 21 mph 1003.7mb 25f
10:57pm 15 22 mph 1003.7mb 25f
10:55pm 14 22 mph 1003.7mb 25f
10:54pm 13 22 mph 1003.7mb 25f
10:51pm 16 22 mph 1003.7mb 25f
10:47pm 17
mph
1003.7mb 25f
10:23pm 14 24 mph 1003.7mb 25f